Terminal Aerodrome Forecast
Issued by NWS Brownsville, TX

Current Version | Previous Version | Text Only | Print | Product List | Glossary Off
Versions: 1 2 3 4 5 6 7 8 9 10 11 12 13 14 15 16 17 18 19

000
FTUS44 KBRO 031933 AAA
TAFBRO
TAF AMD
KBRO 031933Z 0320/0418 16020G28KT P6SM SCT022 BKN028
     FM040300 16015G20KT 6SM BR BKN012
     FM040700 15011G18KT 3SM BR OVC005
     FM041500 17015G20KT P6SM BKN015=

USA.gov is the U.S. government's official web portal to all federal, state and local government web resources and services.